sensor_id;sensor_type;location;lat;lon;timestamp;pressure;altitude;pressure_sealevel;temperature;humidity
58534;BME280;44109;52.398;7.024;2023-11-19T00:00:21;100541.75;;;12.77;100.00
58534;BME280;44109;52.398;7.024;2023-11-19T00:02:49;100540.16;;;12.83;100.00
58534;BME280;44109;52.398;7.024;2023-11-19T00:05:17;100535.78;;;12.79;100.00
58534;BME280;44109;52.398;7.024;2023-11-19T00:07:44;100513.81;;;12.59;100.00
58534;BME280;44109;52.398;7.024;2023-11-19T00:10:13;100516.72;;;12.88;100.00
58534;BME280;44109;52.398;7.024;2023-11-19T00:12:47;100529.88;;;13.02;100.00
58534;BME280;44109;52.398;7.024;2023-11-19T00:15:16;100503.97;;;12.83;100.00
58534;BME280;44109;52.398;7.024;2023-11-19T00:17:46;100506.00;;;12.93;100.00
58534;BME280;44109;52.398;7.024;2023-11-19T00:20:15;100509.63;;;13.05;100.00
58534;BME280;44109;52.398;7.024;2023-11-19T00:22:44;100499.28;;;13.09;100.00
58534;BME280;44109;52.398;7.024;2023-11-19T00:25:14;100497.69;;;13.11;100.00
58534;BME280;44109;52.398;7.024;2023-11-19T00:27:41;100481.00;;;13.15;100.00
58534;BME280;44109;52.398;7.024;2023-11-19T00:30:12;100483.38;;;13.13;100.00
58534;BME280;44109;52.398;7.024;2023-11-19T00:32:40;100489.31;;;12.97;100.00
58534;BME280;44109;52.398;7.024;2023-11-19T00:35:08;100468.22;;;12.96;100.00
58534;BME280;44109;52.398;7.024;2023-11-19T00:37:37;100457.09;;;13.00;100.00
58534;BME280;44109;52.398;7.024;2023-11-19T00:40:06;100478.59;;;13.10;100.00
58534;BME280;44109;52.398;7.024;2023-11-19T00:42:36;100486.16;;;13.09;100.00
58534;BME280;44109;52.398;7.024;2023-11-19T00:45:04;100499.28;;;13.09;100.00
58534;BME280;44109;52.398;7.024;2023-11-19T00:47:36;100500.09;;;13.13;100.00
58534;BME280;44109;52.398;7.024;2023-11-19T00:50:03;100503.63;;;13.03;100.00
58534;BME280;44109;52.398;7.024;2023-11-19T00:52:31;100488.16;;;13.16;100.00
58534;BME280;44109;52.398;7.024;2023-11-19T00:54:59;100473.44;;;13.19;100.00
58534;BME280;44109;52.398;7.024;2023-11-19T00:57:26;100458.75;;;13.36;100.00
58534;BME280;44109;52.398;7.024;2023-11-19T00:59:54;100454.78;;;13.23;100.00
58534;BME280;44109;52.398;7.024;2023-11-19T01:02:21;100417.31;;;13.03;100.00
58534;BME280;44109;52.398;7.024;2023-11-19T01:04:50;100455.50;;;13.16;100.00
58534;BME280;44109;52.398;7.024;2023-11-19T01:07:18;100447.16;;;13.20;100.00
58534;BME280;44109;52.398;7.024;2023-11-19T01:09:47;100396.59;;;12.79;100.00
58534;BME280;44109;52.398;7.024;2023-11-19T01:12:15;100443.22;;;13.25;100.00
58534;BME280;44109;52.398;7.024;2023-11-19T01:14:42;100440.41;;;13.21;100.00
58534;BME280;44109;52.398;7.024;2023-11-19T01:17:09;100429.28;;;13.25;100.00
58534;BME280;44109;52.398;7.024;2023-11-19T01:19:37;100424.09;;;13.16;100.00
58534;BME280;44109;52.398;7.024;2023-11-19T01:22:06;100434.84;;;13.10;100.00
58534;BME280;44109;52.398;7.024;2023-11-19T01:24:33;100427.28;;;13.18;100.00
58534;BME280;44109;52.398;7.024;2023-11-19T01:27:00;100435.28;;;13.37;100.00
58534;BME280;44109;52.398;7.024;2023-11-19T01:29:28;100425.31;;;13.29;100.00
58534;BME280;44109;52.398;7.024;2023-11-19T01:31:55;100427.72;;;13.31;100.00
58534;BME280;44109;52.398;7.024;2023-11-19T01:34:22;100426.91;;;13.52;100.00
58534;BME280;44109;52.398;7.024;2023-11-19T01:36:50;100433.69;;;13.47;100.00
58534;BME280;44109;52.398;7.024;2023-11-19T01:39:19;100432.09;;;13.42;100.00
58534;BME280;44109;52.398;7.024;2023-11-19T01:41:47;100440.06;;;13.58;100.00
58534;BME280;44109;52.398;7.024;2023-11-19T01:44:14;100439.66;;;13.31;100.00
58534;BME280;44109;52.398;7.024;2023-11-19T01:46:44;100442.03;;;13.43;100.00
58534;BME280;44109;52.398;7.024;2023-11-19T01:49:15;100442.84;;;13.51;100.00
58534;BME280;44109;52.398;7.024;2023-11-19T01:51:43;100442.41;;;13.67;100.00
58534;BME280;44109;52.398;7.024;2023-11-19T01:54:12;100438.06;;;13.59;100.00
58534;BME280;44109;52.398;7.024;2023-11-19T01:56:43;100433.25;;;13.70;100.00
58534;BME280;44109;52.398;7.024;2023-11-19T01:59:11;100430.09;;;13.68;100.00
58534;BME280;44109;52.398;7.024;2023-11-19T02:01:41;100424.53;;;13.68;100.00
58534;BME280;44109;52.398;7.024;2023-11-19T02:04:09;100426.09;;;13.69;100.00
58534;BME280;44109;52.398;7.024;2023-11-19T02:06:40;100420.53;;;13.62;100.00
58534;BME280;44109;52.398;7.024;2023-11-19T02:09:08;100395.47;;;13.58;100.00
58534;BME280;44109;52.398;7.024;2023-11-19T02:11:36;100412.13;;;13.76;100.00
58534;BME280;44109;52.398;7.024;2023-11-19T02:14:08;100406.19;;;13.70;100.00
58534;BME280;44109;52.398;7.024;2023-11-19T02:16:36;100406.59;;;13.73;100.00
58534;BME280;44109;52.398;7.024;2023-11-19T02:19:04;100396.63;;;13.71;100.00
58534;BME280;44109;52.398;7.024;2023-11-19T02:21:32;100398.66;;;13.50;100.00
58534;BME280;44109;52.398;7.024;2023-11-19T02:24:00;100411.78;;;13.42;100.00
58534;BME280;44109;52.398;7.024;2023-11-19T02:26:39;100402.22;;;13.57;100.00
58534;BME280;44109;52.398;7.024;2023-11-19T02:29:13;100394.66;;;13.43;100.00
58534;BME280;44109;52.398;7.024;2023-11-19T02:31:40;100385.50;;;13.43;100.00
58534;BME280;44109;52.398;7.024;2023-11-19T02:34:10;100397.88;;;13.31;100.00
58534;BME280;44109;52.398;7.024;2023-11-19T02:36:39;100389.91;;;13.51;100.00
58534;BME280;44109;52.398;7.024;2023-11-19T02:39:08;100382.31;;;13.52;100.00
58534;BME280;44109;52.398;7.024;2023-11-19T02:41:39;100398.22;;;13.62;100.00
58534;BME280;44109;52.398;7.024;2023-11-19T02:44:06;100380.34;;;13.41;100.00
58534;BME280;44109;52.398;7.024;2023-11-19T02:46:35;100387.88;;;13.66;100.00
58534;BME280;44109;52.398;7.024;2023-11-19T02:49:02;100391.88;;;13.47;100.00
58534;BME280;44109;52.398;7.024;2023-11-19T02:51:30;100394.28;;;13.63;100.00
58534;BME280;44109;52.398;7.024;2023-11-19T02:53:57;100380.72;;;13.58;100.00
58534;BME280;44109;52.398;7.024;2023-11-19T02:56:25;100383.13;;;13.56;100.00
58534;BME280;44109;52.398;7.024;2023-11-19T02:58:52;100360.81;;;13.49;100.00
58534;BME280;44109;52.398;7.024;2023-11-19T03:01:23;100373.59;;;13.50;100.00
58534;BME280;44109;52.398;7.024;2023-11-19T03:03:56;100400.59;;;13.67;100.00
58534;BME280;44109;52.398;7.024;2023-11-19T03:06:24;100404.59;;;13.69;100.00
58534;BME280;44109;52.398;7.024;2023-11-19T03:08:54;100385.50;;;13.64;100.00
58534;BME280;44109;52.398;7.024;2023-11-19T03:11:22;100389.03;;;13.90;100.00
58534;BME280;44109;52.398;7.024;2023-11-19T03:13:50;100394.63;;;13.79;100.00
58534;BME280;44109;52.398;7.024;2023-11-19T03:16:17;100390.25;;;13.82;100.00
58534;BME280;44109;52.398;7.024;2023-11-19T03:18:45;100373.53;;;13.75;100.00
58534;BME280;44109;52.398;7.024;2023-11-19T03:21:14;100367.16;;;13.67;100.00
58534;BME280;44109;52.398;7.024;2023-11-19T03:23:41;100378.31;;;13.67;100.00
58534;BME280;44109;52.398;7.024;2023-11-19T03:26:11;100365.94;;;13.82;100.00
58534;BME280;44109;52.398;7.024;2023-11-19T03:28:39;100362.38;;;13.71;100.00
58534;BME280;44109;52.398;7.024;2023-11-19T03:31:06;100346.47;;;13.57;100.00
58534;BME280;44109;52.398;7.024;2023-11-19T03:33:34;100364.81;;;13.55;100.00
58534;BME280;44109;52.398;7.024;2023-11-19T03:36:03;100373.19;;;13.55;100.00
58534;BME280;44109;52.398;7.024;2023-11-19T03:38:33;100371.19;;;13.52;100.00
58534;BME280;44109;52.398;7.024;2023-11-19T03:41:01;100366.81;;;13.36;100.00
58534;BME280;44109;52.398;7.024;2023-11-19T03:43:31;100377.56;;;13.38;100.00
58534;BME280;44109;52.398;7.024;2023-11-19T03:45:59;100380.34;;;13.38;100.00
58534;BME280;44109;52.398;7.024;2023-11-19T03:48:26;100386.72;;;13.35;100.00
58534;BME280;44109;52.398;7.024;2023-11-19T03:50:54;100388.31;;;13.36;100.00
58534;BME280;44109;52.398;7.024;2023-11-19T03:53:21;100382.75;;;13.25;100.00
58534;BME280;44109;52.398;7.024;2023-11-19T03:55:51;100385.13;;;13.41;100.00
58534;BME280;44109;52.398;7.024;2023-11-19T03:58:18;100382.34;;;13.37;100.00
58534;BME280;44109;52.398;7.024;2023-11-19T04:00:46;100372.78;;;13.45;100.00
58534;BME280;44109;52.398;7.024;2023-11-19T04:03:13;100379.19;;;13.35;100.00
58534;BME280;44109;52.398;7.024;2023-11-19T04:05:41;100358.44;;;13.18;100.00
58534;BME280;44109;52.398;7.024;2023-11-19T04:08:08;100376.75;;;13.30;100.00
58534;BME280;44109;52.398;7.024;2023-11-19T04:10:35;100370.41;;;13.33;100.00
58534;BME280;44109;52.398;7.024;2023-11-19T04:13:04;100350.09;;;13.15;100.00
58534;BME280;44109;52.398;7.024;2023-11-19T04:15:31;100356.47;;;13.08;100.00
58534;BME280;44109;52.398;7.024;2023-11-19T04:17:59;100345.72;;;13.07;100.00
58534;BME280;44109;52.398;7.024;2023-11-19T04:20:26;100366.00;;;13.11;100.00
58534;BME280;44109;52.398;7.024;2023-11-19T04:22:54;100366.00;;;13.11;100.00
58534;BME280;44109;52.398;7.024;2023-11-19T04:25:22;100358.84;;;13.10;100.00
58534;BME280;44109;52.398;7.024;2023-11-19T04:27:51;100358.44;;;13.11;100.00
58534;BME280;44109;52.398;7.024;2023-11-19T04:30:20;100345.72;;;13.00;100.00
58534;BME280;44109;52.398;7.024;2023-11-19T04:32:48;100350.91;;;13.05;100.00
58534;BME280;44109;52.398;7.024;2023-11-19T04:35:15;100347.31;;;13.01;100.00
58534;BME280;44109;52.398;7.024;2023-11-19T04:37:43;100359.63;;;12.92;100.00
58534;BME280;44109;52.398;7.024;2023-11-19T04:40:11;100359.22;;;12.83;100.00
58534;BME280;44109;52.398;7.024;2023-11-19T04:42:39;100359.63;;;12.78;100.00
58534;BME280;44109;52.398;7.024;2023-11-19T04:45:07;100359.59;;;12.71;100.00
58534;BME280;44109;52.398;7.024;2023-11-19T04:47:37;100360.81;;;12.63;100.00
58534;BME280;44109;52.398;7.024;2023-11-19T04:50:06;100362.81;;;12.73;100.00
58534;BME280;44109;52.398;7.024;2023-11-19T04:52:37;100360.00;;;12.59;100.00
58534;BME280;44109;52.398;7.024;2023-11-19T04:55:06;100365.53;;;12.62;100.00
58534;BME280;44109;52.398;7.024;2023-11-19T04:57:37;100378.28;;;12.60;100.00
58534;BME280;44109;52.398;7.024;2023-11-19T05:00:05;100361.56;;;12.56;100.00
58534;BME280;44109;52.398;7.024;2023-11-19T05:02:34;100377.09;;;12.54;100.00
58534;BME280;44109;52.398;7.024;2023-11-19T05:05:03;100375.47;;;12.56;100.00
58534;BME280;44109;52.398;7.024;2023-11-19T05:07:31;100376.25;;;12.42;100.00
58534;BME280;44109;52.398;7.024;2023-11-19T05:09:58;100367.09;;;12.42;100.00
58534;BME280;44109;52.398;7.024;2023-11-19T05:12:26;100371.47;;;12.47;100.00
58534;BME280;44109;52.398;7.024;2023-11-19T05:14:53;100370.31;;;12.55;100.00
58534;BME280;44109;52.398;7.024;2023-11-19T05:17:21;100361.16;;;12.51;100.00
58534;BME280;44109;52.398;7.024;2023-11-19T05:19:48;100367.13;;;12.49;100.00
58534;BME280;44109;52.398;7.024;2023-11-19T05:22:17;100370.31;;;12.51;100.00
58534;BME280;44109;52.398;7.024;2023-11-19T05:24:46;100356.00;;;12.53;100.00
58534;BME280;44109;52.398;7.024;2023-11-19T05:27:14;100363.97;;;12.54;100.00
58534;BME280;44109;52.398;7.024;2023-11-19T05:29:42;100370.69;;;12.53;100.00
58534;BME280;44109;52.398;7.024;2023-11-19T05:32:09;100354.78;;;12.47;100.00
58534;BME280;44109;52.398;7.024;2023-11-19T05:34:37;100360.38;;;12.61;100.00
58534;BME280;44109;52.398;7.024;2023-11-19T05:37:04;100360.34;;;12.47;100.00
58534;BME280;44109;52.398;7.024;2023-11-19T05:39:34;100375.84;;;12.48;100.00
58534;BME280;44109;52.398;7.024;2023-11-19T05:42:01;100367.06;;;12.31;100.00
58534;BME280;44109;52.398;7.024;2023-11-19T05:44:28;100369.50;;;12.51;100.00
58534;BME280;44109;52.398;7.024;2023-11-19T05:46:56;100372.28;;;12.58;100.00
58534;BME280;44109;52.398;7.024;2023-11-19T05:49:23;100373.09;;;12.62;100.00
58534;BME280;44109;52.398;7.024;2023-11-19T05:51:50;100387.81;;;12.66;100.00
58534;BME280;44109;52.398;7.024;2023-11-19T05:54:21;100385.47;;;12.68;100.00
58534;BME280;44109;52.398;7.024;2023-11-19T05:56:50;100395.00;;;12.74;100.00
58534;BME280;44109;52.398;7.024;2023-11-19T05:59:20;100398.56;;;12.71;100.00
58534;BME280;44109;52.398;7.024;2023-11-19T06:01:48;100401.31;;;12.57;100.00
58534;BME280;44109;52.398;7.024;2023-11-19T06:04:16;100392.59;;;12.69;100.00
58534;BME280;44109;52.398;7.024;2023-11-19T06:06:43;100395.00;;;12.74;100.00
58534;BME280;44109;52.398;7.024;2023-11-19T06:09:11;100400.19;;;12.79;100.00
58534;BME280;44109;52.398;7.024;2023-11-19T06:11:39;100388.22;;;12.61;100.00
58534;BME280;44109;52.398;7.024;2023-11-19T06:14:07;100389.03;;;12.65;100.00
58534;BME280;44109;52.398;7.024;2023-11-19T06:16:35;100395.78;;;12.71;100.00
58534;BME280;44109;52.398;7.024;2023-11-19T06:19:05;100406.94;;;12.67;100.00
58534;BME280;44109;52.398;7.024;2023-11-19T06:21:32;100394.19;;;12.63;100.00
58534;BME280;44109;52.398;7.024;2023-11-19T06:24:01;100391.00;;;12.61;100.00
58534;BME280;44109;52.398;7.024;2023-11-19T06:26:29;100396.56;;;12.61;100.00
58534;BME280;44109;52.398;7.024;2023-11-19T06:28:56;100399.72;;;12.56;100.00
58534;BME280;44109;52.398;7.024;2023-11-19T06:31:25;100387.81;;;12.59;100.00
58534;BME280;44109;52.398;7.024;2023-11-19T06:33:53;100390.59;;;12.62;100.00
58534;BME280;44109;52.398;7.024;2023-11-19T06:36:20;100384.63;;;12.57;100.00
58534;BME280;44109;52.398;7.024;2023-11-19T06:38:47;100394.56;;;12.58;100.00
58534;BME280;44109;52.398;7.024;2023-11-19T06:41:15;100386.97;;;12.40;100.00
58534;BME280;44109;52.398;7.024;2023-11-19T06:43:42;100383.41;;;12.51;100.00
58534;BME280;44109;52.398;7.024;2023-11-19T06:46:16;100382.97;;;12.34;100.00
58534;BME280;44109;52.398;7.024;2023-11-19T06:48:46;100404.88;;;12.47;100.00
58534;BME280;44109;52.398;7.024;2023-11-19T06:51:13;100379.06;;;12.50;100.00
58534;BME280;44109;52.398;7.024;2023-11-19T06:53:42;100406.47;;;12.51;100.00
58534;BME280;44109;52.398;7.024;2023-11-19T06:56:18;100404.09;;;12.53;100.00
58534;BME280;44109;52.398;7.024;2023-11-19T06:58:47;100412.41;;;12.46;100.00
58534;BME280;44109;52.398;7.024;2023-11-19T07:01:14;100412.00;;;12.44;100.00
58534;BME280;44109;52.398;7.024;2023-11-19T07:03:42;100413.22;;;12.47;100.00
58534;BME280;44109;52.398;7.024;2023-11-19T07:06:11;100406.03;;;12.42;100.00
58534;BME280;44109;52.398;7.024;2023-11-19T07:08:41;100413.16;;;12.32;100.00
58534;BME280;44109;52.398;7.024;2023-11-19T07:11:10;100407.94;;;12.20;100.00
58534;BME280;44109;52.398;7.024;2023-11-19T07:13:38;100413.91;;;12.18;100.00
58534;BME280;44109;52.398;7.024;2023-11-19T07:16:06;100391.97;;;12.03;100.00
58534;BME280;44109;52.398;7.024;2023-11-19T07:18:35;100415.44;;;12.09;100.00
58534;BME280;44109;52.398;7.024;2023-11-19T07:21:04;100418.25;;;12.16;100.00
58534;BME280;44109;52.398;7.024;2023-11-19T07:23:34;100413.88;;;12.15;100.00
58534;BME280;44109;52.398;7.024;2023-11-19T07:26:04;100390.81;;;12.04;100.00
58534;BME280;44109;52.398;7.024;2023-11-19T07:28:34;100437.81;;;12.37;100.00
58534;BME280;44109;52.398;7.024;2023-11-19T07:31:01;100438.66;;;12.45;100.00
58534;BME280;44109;52.398;7.024;2023-11-19T07:33:29;100441.81;;;12.47;100.00
58534;BME280;44109;52.398;7.024;2023-11-19T07:35:56;100427.47;;;12.34;100.00
58534;BME280;44109;52.398;7.024;2023-11-19T07:38:23;100448.19;;;12.48;100.00
58534;BME280;44109;52.398;7.024;2023-11-19T07:40:52;100435.88;;;12.49;100.00
58534;BME280;44109;52.398;7.024;2023-11-19T07:43:20;100444.22;;;12.45;100.00
58534;BME280;44109;52.398;7.024;2023-11-19T07:45:47;100444.22;;;12.49;100.00
58534;BME280;44109;52.398;7.024;2023-11-19T07:48:15;100450.56;;;12.46;100.00
58534;BME280;44109;52.398;7.024;2023-11-19T07:50:44;100454.53;;;12.48;100.00
58534;BME280;44109;52.398;7.024;2023-11-19T07:53:11;100468.13;;;12.60;100.00
58534;BME280;44109;52.398;7.024;2023-11-19T07:55:39;100470.09;;;12.56;100.00
58534;BME280;44109;52.398;7.024;2023-11-19T07:58:07;100449.41;;;12.50;100.00
58534;BME280;44109;52.398;7.024;2023-11-19T08:00:35;100470.88;;;12.57;100.00
58534;BME280;44109;52.398;7.024;2023-11-19T08:03:03;100472.88;;;12.67;100.00
58534;BME280;44109;52.398;7.024;2023-11-19T08:05:31;100475.72;;;12.74;100.00
58534;BME280;44109;52.398;7.024;2023-11-19T08:07:58;100480.50;;;12.81;100.00
58534;BME280;44109;52.398;7.024;2023-11-19T08:10:26;100468.22;;;12.85;100.00
58534;BME280;44109;52.398;7.024;2023-11-19T08:12:54;100487.69;;;12.82;100.00
58534;BME280;44109;52.398;7.024;2023-11-19T08:15:23;100474.50;;;12.75;100.00
58534;BME280;44109;52.398;7.024;2023-11-19T08:17:50;100476.94;;;12.84;100.00
58534;BME280;44109;52.398;7.024;2023-11-19T08:20:18;100484.13;;;12.95;100.00
58534;BME280;44109;52.398;7.024;2023-11-19T08:22:45;100474.56;;;12.89;100.00
58534;BME280;44109;52.398;7.024;2023-11-19T08:25:13;100493.25;;;12.92;100.00
58534;BME280;44109;52.398;7.024;2023-11-19T08:27:40;100487.69;;;12.89;100.00
58534;BME280;44109;52.398;7.024;2023-11-19T08:30:09;100488.91;;;12.91;100.00
58534;BME280;44109;52.398;7.024;2023-11-19T08:32:39;100482.91;;;12.82;100.00
58534;BME280;44109;52.398;7.024;2023-11-19T08:35:07;100486.88;;;12.88;100.00
58534;BME280;44109;52.398;7.024;2023-11-19T08:37:35;100478.16;;;12.97;100.00
58534;BME280;44109;52.398;7.024;2023-11-19T08:40:04;100492.09;;;13.01;100.00
58534;BME280;44109;52.398;7.024;2023-11-19T08:42:33;100479.31;;;12.89;100.00
58534;BME280;44109;52.398;7.024;2023-11-19T08:45:00;100484.53;;;12.98;100.00
58534;BME280;44109;52.398;7.024;2023-11-19T08:47:28;100483.34;;;13.02;100.00
58534;BME280;44109;52.398;7.024;2023-11-19T08:49:57;100491.34;;;13.18;100.00
58534;BME280;44109;52.398;7.024;2023-11-19T08:52:24;100484.56;;;13.12;100.00
58534;BME280;44109;52.398;7.024;2023-11-19T08:54:52;100477.84;;;13.24;100.00
58534;BME280;44109;52.398;7.024;2023-11-19T08:57:19;100485.00;;;13.25;100.00
58534;BME280;44109;52.398;7.024;2023-11-19T08:59:46;100477.41;;;13.14;100.00
58534;BME280;44109;52.398;7.024;2023-11-19T09:02:16;100482.13;;;12.92;100.00
58534;BME280;44109;52.398;7.024;2023-11-19T09:04:44;100484.16;;;13.20;100.00
58534;BME280;44109;52.398;7.024;2023-11-19T09:07:13;100481.03;;;13.29;100.00
58534;BME280;44109;52.398;7.024;2023-11-19T09:09:40;100466.66;;;13.20;100.00
58534;BME280;44109;52.398;7.024;2023-11-19T09:12:08;100485.41;;;13.23;100.00
58534;BME280;44109;52.398;7.024;2023-11-19T09:14:35;100491.31;;;13.11;100.00
58534;BME280;44109;52.398;7.024;2023-11-19T09:17:03;100484.56;;;13.19;100.00
58534;BME280;44109;52.398;7.024;2023-11-19T09:19:32;100470.69;;;13.37;100.00
58534;BME280;44109;52.398;7.024;2023-11-19T09:22:01;100490.22;;;13.51;100.00
58534;BME280;44109;52.398;7.024;2023-11-19T09:24:31;100476.28;;;13.69;100.00
58534;BME280;44109;52.398;7.024;2023-11-19T09:26:59;100467.13;;;13.61;100.00
58534;BME280;44109;52.398;7.024;2023-11-19T09:29:26;100484.25;;;13.78;100.00
58534;BME280;44109;52.398;7.024;2023-11-19T09:31:53;100485.03;;;13.75;100.00
58534;BME280;44109;52.398;7.024;2023-11-19T09:34:21;100493.41;;;13.78;100.00
58534;BME280;44109;52.398;7.024;2023-11-19T09:36:48;100487.81;;;13.78;100.00
58534;BME280;44109;52.398;7.024;2023-11-19T09:39:15;100488.22;;;13.87;100.00
58534;BME280;44109;52.398;7.024;2023-11-19T09:41:45;100478.66;;;13.78;100.00
58534;BME280;44109;52.398;7.024;2023-11-19T09:44:13;100504.53;;;13.71;100.00
58534;BME280;44109;52.398;7.024;2023-11-19T09:46:44;100500.56;;;13.58;100.00
58534;BME280;44109;52.398;7.024;2023-11-19T09:49:13;100499.78;;;13.50;100.00
58534;BME280;44109;52.398;7.024;2023-11-19T09:51:43;100493.00;;;13.58;100.00
58534;BME280;44109;52.398;7.024;2023-11-19T09:54:10;100493.00;;;13.58;100.00
58534;BME280;44109;52.398;7.024;2023-11-19T09:56:40;100491.41;;;13.50;100.00
58534;BME280;44109;52.398;7.024;2023-11-19T09:59:12;100497.75;;;13.43;100.00
58534;BME280;44109;52.398;7.024;2023-11-19T10:01:40;100479.06;;;13.51;100.00
58534;BME280;44109;52.398;7.024;2023-11-19T10:04:10;100483.06;;;13.54;100.00
58534;BME280;44109;52.398;7.024;2023-11-19T10:06:42;100489.81;;;13.53;100.00
58534;BME280;44109;52.398;7.024;2023-11-19T10:09:12;100477.84;;;13.49;100.00
58534;BME280;44109;52.398;7.024;2023-11-19T10:11:41;100487.03;;;13.56;100.00
58534;BME280;44109;52.398;7.024;2023-11-19T10:14:10;100478.25;;;13.58;100.00
58534;BME280;44109;52.398;7.024;2023-11-19T10:16:38;100485.03;;;13.42;100.00
58534;BME280;44109;52.398;7.024;2023-11-19T10:19:06;100473.47;;;13.48;100.00
58534;BME280;44109;52.398;7.024;2023-11-19T10:21:35;100484.25;;;13.56;100.00
58534;BME280;44109;52.398;7.024;2023-11-19T10:24:03;100473.88;;;13.57;100.00
58534;BME280;44109;52.398;7.024;2023-11-19T10:26:31;100483.44;;;13.56;100.00
58534;BME280;44109;52.398;7.024;2023-11-19T10:29:00;100467.94;;;13.40;100.00
58534;BME280;44109;52.398;7.024;2023-11-19T10:31:28;100469.13;;;13.50;100.00
58534;BME280;44109;52.398;7.024;2023-11-19T10:33:56;100478.28;;;13.51;100.00
58534;BME280;44109;52.398;7.024;2023-11-19T10:36:37;100481.47;;;13.60;100.00
58534;BME280;44109;52.398;7.024;2023-11-19T10:39:06;100475.88;;;13.70;100.00
58534;BME280;44109;52.398;7.024;2023-11-19T10:41:35;100469.91;;;13.58;100.00
58534;BME280;44109;52.398;7.024;2023-11-19T10:44:03;100457.97;;;13.61;100.00
58534;BME280;44109;52.398;7.024;2023-11-19T10:46:39;100471.09;;;13.64;100.00
58534;BME280;44109;52.398;7.024;2023-11-19T10:49:12;100475.47;;;13.83;100.00
58534;BME280;44109;52.398;7.024;2023-11-19T10:51:45;100444.38;;;13.84;100.00
58534;BME280;44109;52.398;7.024;2023-11-19T10:54:15;100464.28;;;13.93;100.00
58534;BME280;44109;52.398;7.024;2023-11-19T10:56:48;100453.47;;;14.17;100.00
58534;BME280;44109;52.398;7.024;2023-11-19T10:59:23;100449.09;;;14.23;100.00
58534;BME280;44109;52.398;7.024;2023-11-19T11:01:54;100456.25;;;14.24;100.00
58534;BME280;44109;52.398;7.024;2023-11-19T11:04:25;100447.50;;;14.18;100.00
58534;BME280;44109;52.398;7.024;2023-11-19T11:06:54;100454.69;;;14.16;100.00
58534;BME280;44109;52.398;7.024;2023-11-19T11:09:26;100454.63;;;14.30;100.00
58534;BME280;44109;52.398;7.024;2023-11-19T11:11:54;100457.84;;;14.25;100.00
58534;BME280;44109;52.398;7.024;2023-11-19T11:14:24;100459.44;;;14.26;100.00
58534;BME280;44109;52.398;7.024;2023-11-19T11:16:56;100456.25;;;14.17;100.00
58534;BME280;44109;52.398;7.024;2023-11-19T11:19:25;100455.47;;;14.16;100.00
58534;BME280;44109;52.398;7.024;2023-11-19T11:21:54;100434.81;;;13.92;100.00
58534;BME280;44109;52.398;7.024;2023-11-19T11:27:47;100449.50;;;14.18;100.00
58534;BME280;44109;52.398;7.024;2023-11-19T11:30:29;100447.09;;;14.20;100.00
58534;BME280;44109;52.398;7.024;2023-11-19T11:33:23;100444.31;;;14.20;100.00
58534;BME280;44109;52.398;7.024;2023-11-19T11:36:09;100451.50;;;14.10;100.00
58534;BME280;44109;52.398;7.024;2023-11-19T11:38:47;100447.94;;;14.03;100.00
58534;BME280;44109;52.398;7.024;2023-11-19T11:41:17;100450.31;;;14.15;100.00
58534;BME280;44109;52.398;7.024;2023-11-19T11:43:49;100449.09;;;14.16;100.00
58534;BME280;44109;52.398;7.024;2023-11-19T11:46:54;100447.53;;;14.11;100.00
58534;BME280;44109;52.398;7.024;2023-11-19T11:49:26;100451.53;;;14.00;100.00
58534;BME280;44109;52.398;7.024;2023-11-19T11:51:59;100448.00;;;13.67;100.00
58534;BME280;44109;52.398;7.024;2023-11-19T11:54:29;100439.59;;;13.95;100.00
58534;BME280;44109;52.398;7.024;2023-11-19T11:57:06;100439.63;;;13.78;100.00
58534;BME280;44109;52.398;7.024;2023-11-19T11:59:48;100436.47;;;13.68;100.00
58534;BME280;44109;52.398;7.024;2023-11-19T12:02:18;100438.06;;;13.59;100.00
58534;BME280;44109;52.398;7.024;2023-11-19T12:04:49;100430.91;;;13.47;100.00
58534;BME280;44109;52.398;7.024;2023-11-19T12:07:19;100424.53;;;13.29;100.00
58534;BME280;44109;52.398;7.024;2023-11-19T12:09:51;100419.75;;;13.36;100.00
58534;BME280;44109;52.398;7.024;2023-11-19T12:12:23;100425.31;;;13.68;100.00
58534;BME280;44109;52.398;7.024;2023-11-19T12:15:04;100415.75;;;13.73;100.00
58534;BME280;44109;52.398;7.024;2023-11-19T12:17:47;100416.13;;;13.71;100.00
58534;BME280;44109;52.398;7.024;2023-11-19T12:20:22;100419.72;;;13.79;100.00
58534;BME280;44109;52.398;7.024;2023-11-19T12:22:51;100410.59;;;13.68;100.00
58534;BME280;44109;52.398;7.024;2023-11-19T12:25:20;100402.53;;;14.02;100.00
58534;BME280;44109;52.398;7.024;2023-11-19T12:27:49;100410.88;;;14.09;100.00
58534;BME280;44109;52.398;7.024;2023-11-19T12:30:21;100404.09;;;14.14;100.00
58534;BME280;44109;52.398;7.024;2023-11-19T12:32:50;100416.09;;;13.96;100.00
58534;BME280;44109;52.398;7.024;2023-11-19T12:35:21;100422.91;;;13.67;100.00
58534;BME280;44109;52.398;7.024;2023-11-19T12:37:50;100430.91;;;13.36;100.00
58534;BME280;44109;52.398;7.024;2023-11-19T12:40:19;100424.91;;;13.13;100.00
58534;BME280;44109;52.398;7.024;2023-11-19T12:42:48;100430.84;;;13.01;100.00
58534;BME280;44109;52.398;7.024;2023-11-19T12:45:16;100431.63;;;12.98;100.00
58534;BME280;44109;52.398;7.024;2023-11-19T12:47:47;100429.94;;;12.61;100.00
58534;BME280;44109;52.398;7.024;2023-11-19T12:50:16;100410.91;;;12.81;100.00
58534;BME280;44109;52.398;7.024;2023-11-19T12:52:56;100420.78;;;12.50;100.00